createdAt,value
2019-02-07T00:01:41.010Z,84.40
2019-02-07T00:04:07.088Z,84.60
2019-02-07T00:06:33.095Z,85.10
2019-02-07T00:08:59.127Z,84.80
2019-02-07T00:11:25.181Z,84.70
2019-02-07T00:13:51.238Z,84.70
2019-02-07T00:16:17.543Z,84.80
2019-02-07T00:18:43.557Z,84.90
2019-02-07T00:21:09.623Z,85.30
2019-02-07T00:23:35.662Z,86.00
2019-02-07T00:26:01.667Z,86.40
2019-02-07T00:28:27.695Z,86.40
2019-02-07T00:30:53.814Z,86.30
2019-02-07T00:33:19.833Z,86.10
2019-02-07T00:35:45.844Z,86.20
2019-02-07T00:38:11.865Z,86.00
2019-02-07T00:40:37.866Z,85.50
2019-02-07T00:43:03.899Z,84.40
2019-02-07T00:45:29.931Z,84.10
2019-02-07T00:47:55.942Z,84.10
2019-02-07T00:50:21.971Z,83.60
2019-02-07T00:52:48.055Z,83.60
2019-02-07T00:55:15.387Z,82.50
2019-02-07T00:57:41.694Z,82.30
2019-02-07T01:00:22.603Z,82.80
2019-02-07T01:02:48.935Z,83.60
2019-02-07T01:05:15.067Z,84.20
2019-02-07T01:07:41.203Z,84.10
2019-02-07T01:10:10.360Z,83.70
2019-02-07T01:12:36.574Z,83.30
2019-02-07T01:15:05.299Z,83.30
2019-02-07T01:17:31.332Z,82.80
2019-02-07T01:19:57.363Z,82.80
2019-02-07T01:22:23.490Z,82.80
2019-02-07T01:24:49.516Z,83.40
2019-02-07T01:27:15.548Z,82.20
2019-02-07T01:29:41.555Z,82.60
2019-02-07T01:32:07.891Z,82.30
2019-02-07T01:34:33.971Z,83.10
2019-02-07T01:36:59.998Z,82.00
2019-02-07T01:39:26.011Z,82.00
2019-02-07T01:41:52.131Z,81.70
2019-02-07T01:44:18.140Z,82.40
2019-02-07T01:46:44.187Z,82.50
2019-02-07T01:49:10.199Z,83.40
2019-02-07T01:51:36.710Z,83.30
2019-02-07T01:54:02.940Z,83.50
2019-02-07T01:56:28.952Z,82.70
2019-02-07T01:58:54.979Z,82.90
2019-02-07T02:01:21.014Z,82.50
2019-02-07T02:03:47.029Z,82.10
2019-02-07T02:06:13.075Z,82.00
2019-02-07T02:08:39.116Z,81.60
2019-02-07T02:11:05.314Z,81.70
2019-02-07T02:13:31.546Z,81.90
2019-02-07T02:15:57.575Z,82.60
2019-02-07T02:18:23.607Z,82.40
2019-02-07T02:20:49.619Z,82.80
2019-02-07T02:23:15.652Z,82.40
2019-02-07T02:25:41.687Z,82.30
2019-02-07T02:28:07.819Z,81.80
2019-02-07T02:30:34.395Z,81.90
2019-02-07T02:33:20.598Z,81.80
2019-02-07T02:35:46.636Z,81.90
2019-02-07T02:38:12.668Z,81.60
2019-02-07T02:40:38.704Z,81.60
2019-02-07T02:43:04.819Z,81.60
2019-02-07T02:45:37.436Z,82.30
2019-02-07T02:47:58.773Z,81.80
2019-02-07T02:50:24.783Z,82.10
2019-02-07T02:52:50.836Z,81.70
2019-02-07T02:55:24.575Z,81.60
2019-02-07T02:57:50.606Z,81.50
2019-02-07T03:00:18.617Z,81.50
2019-02-07T03:03:03.391Z,81.60
2019-02-07T03:05:31.315Z,81.40
2019-02-07T03:08:05.049Z,81.90
2019-02-07T03:10:32.970Z,82.30
2019-02-07T03:13:06.723Z,83.10
2019-02-07T03:15:49.608Z,82.90
2019-02-07T03:18:22.203Z,83.10
2019-02-07T03:21:02.047Z,83.20
2019-02-07T03:23:32.501Z,82.50
2019-02-07T03:26:06.132Z,82.30
2019-02-07T03:28:45.847Z,82.70
2019-02-07T03:31:30.467Z,82.70
2019-02-07T03:33:58.379Z,83.30
2019-02-07T03:36:26.324Z,82.70
2019-02-07T03:39:10.717Z,82.40
2019-02-07T03:41:55.286Z,82.50
2019-02-07T03:44:23.239Z,82.80
2019-02-07T03:47:09.169Z,82.60
2019-02-07T03:49:37.071Z,82.50
2019-02-07T03:52:07.787Z,82.70
2019-02-07T03:54:39.001Z,83.20
2019-02-07T03:57:09.696Z,82.90
2019-02-07T03:59:43.485Z,82.70
2019-02-07T04:02:14.372Z,82.40
2019-02-07T04:04:48.217Z,83.50
2019-02-07T04:07:32.457Z,82.30
2019-02-07T04:10:09.352Z,82.10
2019-02-07T04:12:45.921Z,82.00
2019-02-07T04:15:20.227Z,81.80
2019-02-07T04:17:48.145Z,81.60
2019-02-07T04:20:32.502Z,81.40
2019-02-07T04:23:06.457Z,81.40
2019-02-07T04:25:51.123Z,81.70
2019-02-07T04:28:21.836Z,81.70
2019-02-07T04:30:55.619Z,81.70
2019-02-07T04:33:40.318Z,82.30
2019-02-07T04:36:08.256Z,82.40
2019-02-07T04:38:48.357Z,83.60
2019-02-07T04:41:16.327Z,83.50
2019-02-07T04:44:00.792Z,83.20
2019-02-07T04:46:31.492Z,82.90
2019-02-07T04:49:05.427Z,83.40
2019-02-07T04:51:36.124Z,83.70
2019-02-07T04:54:06.836Z,83.40
2019-02-07T04:56:37.700Z,83.40
2019-02-07T04:59:05.650Z,83.90
2019-02-07T05:01:48.571Z,84.40
2019-02-07T05:04:19.251Z,85.50
2019-02-07T05:06:59.601Z,86.60
2019-02-07T05:09:30.472Z,87.00
2019-02-07T05:11:57.367Z,87.10
2019-02-07T05:14:41.850Z,87.60
2019-02-07T05:17:15.981Z,87.50
2019-02-07T05:19:53.015Z,86.90
2019-02-07T05:22:29.983Z,87.40
2019-02-07T05:25:12.991Z,87.60
2019-02-07T05:27:40.934Z,88.00
2019-02-07T05:30:18.231Z,88.30
2019-02-07T05:33:03.011Z,88.40
2019-02-07T05:35:47.688Z,88.90
2019-02-07T05:41:04.944Z,90.00
2019-02-07T05:43:38.444Z,90.20
2019-02-07T05:46:12.296Z,90.20
2019-02-07T05:48:40.235Z,90.20
2019-02-07T05:51:20.454Z,90.30
2019-02-07T05:53:53.029Z,90.60
2019-02-07T05:56:27.884Z,90.60
2019-02-07T05:59:01.668Z,90.60
2019-02-07T06:01:38.486Z,90.70
2019-02-07T06:04:09.220Z,91.10
2019-02-07T06:06:46.718Z,91.20
2019-02-07T06:09:33.816Z,91.10
2019-02-07T06:12:16.855Z,91.00
2019-02-07T06:14:53.876Z,91.30
2019-02-07T06:17:38.615Z,91.10
2019-02-07T06:20:31.252Z,91.30
2019-02-07T06:22:59.168Z,91.30
2019-02-07T06:25:27.116Z,91.30
2019-02-07T06:28:06.895Z,91.50
2019-02-07T06:30:37.838Z,91.40
2019-02-07T06:33:23.880Z,91.80
2019-02-07T06:36:03.821Z,91.50
2019-02-07T06:38:46.680Z,91.30
2019-02-07T06:41:14.619Z,91.30
2019-02-07T06:47:00.356Z,91.40
2019-02-07T06:49:40.635Z,91.50
2019-02-07T06:52:11.085Z,91.30
2019-02-07T06:54:44.819Z,91.40
2019-02-07T06:57:29.451Z,91.40
2019-02-07T07:00:14.028Z,91.40
2019-02-07T07:02:41.947Z,91.30
2019-02-07T07:05:28.383Z,91.40
2019-02-07T07:08:12.872Z,91.40
2019-02-07T07:10:46.692Z,91.40
2019-02-07T07:13:14.638Z,91.50
2019-02-07T07:15:42.584Z,91.50
2019-02-07T07:18:27.139Z,92.00
2019-02-07T07:21:11.847Z,91.80
2019-02-07T07:23:54.915Z,91.80
2019-02-07T07:26:39.331Z,91.70
2019-02-07T07:29:07.591Z,91.60
2019-02-07T07:31:38.039Z,91.80
2019-02-07T07:34:25.853Z,91.70
2019-02-07T07:36:53.823Z,91.50
2019-02-07T07:39:38.756Z,91.70
2019-02-07T07:42:06.701Z,91.60
2019-02-07T07:44:46.610Z,91.70
2019-02-07T07:47:35.749Z,91.90
2019-02-07T07:50:04.967Z,92.20
2019-02-07T07:52:41.992Z,92.20
2019-02-07T07:55:09.907Z,92.50
2019-02-07T07:57:53.063Z,92.70
2019-02-07T08:00:26.807Z,93.00
2019-02-07T08:02:54.802Z,93.20
2019-02-07T08:05:22.727Z,93.00
2019-02-07T08:07:53.407Z,93.20
2019-02-07T08:10:27.383Z,93.40
2019-02-07T08:13:01.308Z,93.20
2019-02-07T08:15:35.219Z,93.40
2019-02-07T08:18:15.069Z,93.50
2019-02-07T08:20:49.011Z,93.20
2019-02-07T08:23:16.951Z,93.70
2019-02-07T08:25:44.875Z,93.80
2019-02-07T08:28:12.816Z,93.90
2019-02-07T08:30:52.675Z,93.70
2019-02-07T08:33:39.263Z,93.60
2019-02-07T08:36:10.711Z,93.70
2019-02-07T08:38:41.167Z,93.80
2019-02-07T08:41:09.084Z,93.50
2019-02-07T08:43:40.109Z,93.70
2019-02-07T08:46:08.028Z,93.30
2019-02-07T08:48:48.003Z,93.40
2019-02-07T08:51:32.579Z,93.40
2019-02-07T08:54:17.260Z,93.40
2019-02-07T08:56:57.083Z,93.70
2019-02-07T08:59:43.244Z,93.80
2019-02-07T09:02:29.512Z,94.30
2019-02-07T09:05:13.860Z,94.20
2019-02-07T09:07:58.363Z,94.00
2019-02-07T09:10:42.586Z,94.60
2019-02-07T09:13:10.615Z,94.60
2019-02-07T09:15:38.619Z,94.70
2019-02-07T09:18:24.939Z,94.40
2019-02-07T09:20:58.867Z,94.70
2019-02-07T09:23:26.809Z,94.80
2019-02-07T09:25:57.568Z,94.60
2019-02-07T09:28:31.796Z,94.60
2019-02-07T09:31:02.548Z,94.50
2019-02-07T09:33:50.344Z,94.40
2019-02-07T09:36:21.128Z,94.30
2019-02-07T09:38:55.728Z,94.30
2019-02-07T09:41:29.488Z,94.30
2019-02-07T09:44:09.460Z,94.40
2019-02-07T09:46:37.396Z,94.30
2019-02-07T09:49:17.888Z,94.40
2019-02-07T09:51:48.903Z,94.80
2019-02-07T09:54:22.451Z,94.30
2019-02-07T09:56:56.263Z,94.70
2019-02-07T09:59:24.181Z,94.50
2019-02-07T10:01:52.156Z,94.40
2019-02-07T10:04:32.004Z,94.00
2019-02-07T10:07:02.695Z,94.10
2019-02-07T10:09:45.694Z,93.90
2019-02-07T10:12:16.627Z,93.80
2019-02-07T10:14:44.555Z,93.60
2019-02-07T10:17:12.516Z,93.80
2019-02-07T10:19:45.979Z,93.70
2019-02-07T10:22:13.919Z,93.80
2019-02-07T10:24:57.460Z,93.90
2019-02-07T10:27:25.430Z,93.60
2019-02-07T10:30:05.135Z,93.60
2019-02-07T10:32:44.743Z,93.80
2019-02-07T10:35:22.428Z,93.50
2019-02-07T10:37:45.208Z,93.50
2019-02-07T10:40:31.868Z,93.20
2019-02-07T10:43:16.519Z,93.50
2019-02-07T10:45:47.297Z,93.40
2019-02-07T10:48:24.020Z,94.10
2019-02-07T10:51:06.812Z,93.60
2019-02-07T10:53:46.754Z,93.80
2019-02-07T10:56:20.411Z,93.50
2019-02-07T10:59:00.388Z,93.30
2019-02-07T11:01:31.423Z,93.30
2019-02-07T11:04:17.239Z,93.10
2019-02-07T11:06:45.168Z,93.20
2019-02-07T11:09:15.747Z,93.40
2019-02-07T11:11:53.523Z,93.20
2019-02-07T11:14:21.443Z,93.10
2019-02-07T11:16:49.407Z,93.10
2019-02-07T11:19:35.231Z,93.50
2019-02-07T11:22:06.496Z,93.50
2019-02-07T11:24:37.395Z,93.70
2019-02-07T11:27:20.238Z,93.80
2019-02-07T11:29:57.302Z,94.00
2019-02-07T11:32:42.135Z,94.30
2019-02-07T11:35:15.875Z,94.20
2019-02-07T11:37:52.623Z,94.30
2019-02-07T11:40:26.660Z,94.50
2019-02-07T11:43:11.228Z,94.60
2019-02-07T11:45:55.964Z,94.40
2019-02-07T11:48:27.317Z,94.60
2019-02-07T11:50:57.871Z,94.60
2019-02-07T11:53:42.635Z,94.70
2019-02-07T11:56:10.575Z,94.80
2019-02-07T11:58:56.899Z,94.90
2019-02-07T12:01:24.921Z,94.60
2019-02-07T12:03:55.585Z,94.60
2019-02-07T12:06:35.311Z,94.30
2019-02-07T12:09:06.172Z,94.20
2019-02-07T12:11:48.513Z,93.80
2019-02-07T12:14:21.951Z,93.50
2019-02-07T12:17:06.528Z,93.50
2019-02-07T12:19:34.460Z,93.30
2019-02-07T12:22:02.379Z,93.30
2019-02-07T12:24:47.175Z,93.10
2019-02-07T12:27:27.168Z,92.90
2019-02-07T12:29:55.099Z,92.70
2019-02-07T12:32:25.544Z,92.50
2019-02-07T12:34:55.296Z,92.00
2019-02-07T12:37:35.011Z,91.60
2019-02-07T12:40:09.596Z,90.90
2019-02-07T12:42:40.567Z,91.00
2019-02-07T12:45:09.900Z,90.50
2019-02-07T12:47:49.914Z,90.20
2019-02-07T12:50:34.560Z,89.70
2019-02-07T12:53:05.291Z,89.40
2019-02-07T12:55:35.717Z,89.40
2019-02-07T12:58:20.756Z,89.40
2019-02-07T13:00:48.683Z,87.00
2019-02-07T13:03:33.455Z,88.00
2019-02-07T13:06:01.404Z,87.80
2019-02-07T13:08:32.271Z,88.00
2019-02-07T13:11:03.312Z,89.40
2019-02-07T13:13:34.095Z,89.10
2019-02-07T13:16:14.218Z,89.20
2019-02-07T13:18:42.156Z,89.40
2019-02-07T13:21:25.394Z,90.20
2019-02-07T13:24:30.025Z,90.10
2019-02-07T13:27:14.544Z,90.00
2019-02-07T13:29:42.579Z,90.40
2019-02-07T13:32:19.619Z,90.30
2019-02-07T13:34:47.593Z,90.50
2019-02-07T13:37:15.565Z,90.40
2019-02-07T13:39:46.403Z,90.30
2019-02-07T13:42:16.860Z,90.10
2019-02-07T13:45:03.044Z,90.00
2019-02-07T13:47:30.974Z,90.40
2019-02-07T13:50:04.823Z,90.40
2019-02-07T13:52:38.588Z,90.20
2019-02-07T13:55:26.426Z,89.50
2019-02-07T13:58:00.311Z,88.10
2019-02-07T14:00:44.776Z,88.90
2019-02-07T14:03:12.691Z,88.60
2019-02-07T14:05:57.458Z,88.50
2019-02-07T14:08:38.117Z,88.90
2019-02-07T14:11:10.063Z,89.60
2019-02-07T14:13:54.687Z,88.00
2019-02-07T14:16:26.042Z,88.20
2019-02-07T14:19:26.067Z,87.10
2019-02-07T14:21:56.952Z,87.80
2019-02-07T14:24:25.071Z,88.10
2019-02-07T14:26:55.983Z,88.50
2019-02-07T14:29:32.979Z,87.90
2019-02-07T14:32:03.939Z,88.40
2019-02-07T14:34:48.459Z,88.20
2019-02-07T14:37:19.297Z,88.00
2019-02-07T14:39:47.214Z,88.20
2019-02-07T14:42:18.126Z,88.20
2019-02-07T14:44:46.135Z,88.50
2019-02-07T14:47:12.175Z,88.50
2019-02-07T14:49:38.507Z,89.40
2019-02-07T14:52:04.939Z,89.40
2019-02-07T14:54:30.953Z,89.00
2019-02-07T14:56:57.043Z,88.60
2019-02-07T14:59:23.082Z,87.50
2019-02-07T15:01:49.104Z,87.20
2019-02-07T15:04:15.139Z,87.10
2019-02-07T15:06:41.175Z,86.90
2019-02-07T15:09:12.195Z,87.50
2019-02-07T15:11:38.237Z,88.30
2019-02-07T15:14:04.262Z,88.80
2019-02-07T15:16:30.267Z,88.90
2019-02-07T15:18:56.354Z,89.10
2019-02-07T15:21:22.379Z,88.60
2019-02-07T15:23:48.420Z,87.90
2019-02-07T15:26:14.431Z,87.70
2019-02-07T15:28:40.775Z,89.00
2019-02-07T15:31:06.811Z,89.10
2019-02-07T15:33:32.859Z,88.40
2019-02-07T15:35:58.872Z,89.00
2019-02-07T15:38:25.027Z,89.30
2019-02-07T15:40:51.140Z,89.40
2019-02-07T15:43:17.172Z,90.40
2019-02-07T15:45:43.194Z,90.50
2019-02-07T15:48:09.236Z,90.10
2019-02-07T15:50:38.243Z,90.00
2019-02-07T15:53:05.012Z,88.80
2019-02-07T15:55:31.039Z,88.40
2019-02-07T15:57:57.051Z,87.80
2019-02-07T16:00:29.543Z,88.20
2019-02-07T16:02:58.052Z,89.40
2019-02-07T16:05:24.107Z,90.00
2019-02-07T16:07:50.443Z,90.20
2019-02-07T16:10:16.487Z,90.20
2019-02-07T16:12:42.548Z,90.70
2019-02-07T16:15:10.072Z,91.10
2019-02-07T16:17:36.231Z,91.50
2019-02-07T16:20:08.807Z,91.60
2019-02-07T16:22:34.933Z,91.40
2019-02-07T16:25:01.247Z,91.10
2019-02-07T16:27:27.280Z,91.20
2019-02-07T16:29:53.319Z,91.30
2019-02-07T16:32:19.327Z,91.50
2019-02-07T16:34:45.355Z,91.30
2019-02-07T16:37:11.468Z,91.00
2019-02-07T16:39:37.504Z,91.10
2019-02-07T16:42:06.445Z,90.20
2019-02-07T16:44:31.556Z,90.00
2019-02-07T16:46:57.595Z,89.70
2019-02-07T16:49:23.705Z,89.80
2019-02-07T16:51:49.760Z,89.30
2019-02-07T16:54:15.780Z,88.30
2019-02-07T16:56:41.824Z,88.50
2019-02-07T16:59:07.891Z,88.20
2019-02-07T17:01:33.920Z,89.30
2019-02-07T17:03:59.956Z,90.10
2019-02-07T17:06:26.001Z,90.80
2019-02-07T17:08:52.095Z,91.30
2019-02-07T17:11:18.113Z,91.40
2019-02-07T17:13:44.186Z,92.00
2019-02-07T17:16:10.198Z,92.60
2019-02-07T17:18:36.267Z,93.30
2019-02-07T17:21:11.576Z,93.50
2019-02-07T17:23:30.248Z,93.60
2019-02-07T17:25:56.307Z,93.90
2019-02-07T17:28:22.402Z,94.10
2019-02-07T17:30:48.464Z,94.20
2019-02-07T17:33:14.480Z,94.10
2019-02-07T17:35:40.520Z,94.00
2019-02-07T17:38:06.600Z,94.40
2019-02-07T17:40:32.651Z,94.10
2019-02-07T17:42:58.677Z,94.10
2019-02-07T17:45:29.023Z,94.00
2019-02-07T17:47:55.298Z,94.20
2019-02-07T17:50:24.719Z,94.50
2019-02-07T17:52:50.896Z,94.80
2019-02-07T17:55:19.547Z,95.10
2019-02-07T17:57:46.039Z,95.10
2019-02-07T18:00:29.588Z,94.90
2019-02-07T18:02:55.612Z,94.70
2019-02-07T18:05:21.663Z,94.50
2019-02-07T18:07:47.695Z,94.50
2019-02-07T18:10:13.733Z,94.20
2019-02-07T18:12:39.844Z,94.00
2019-02-07T18:15:07.779Z,93.80
2019-02-07T18:17:33.830Z,93.70
2019-02-07T18:20:32.630Z,93.40
2019-02-07T18:22:58.880Z,93.30
2019-02-07T18:25:25.824Z,93.10
2019-02-07T18:27:51.843Z,92.80
2019-02-07T18:30:19.494Z,92.80
2019-02-07T18:32:46.546Z,92.80
2019-02-07T18:35:13.483Z,92.80
2019-02-07T18:37:39.514Z,92.80
2019-02-07T18:40:09.259Z,92.60
2019-02-07T18:42:35.360Z,92.70
2019-02-07T18:45:01.685Z,92.70
2019-02-07T18:47:27.895Z,92.50
2019-02-07T18:49:54.470Z,92.50
2019-02-07T18:52:40.364Z,92.40
2019-02-07T18:55:06.706Z,92.50
2019-02-07T18:57:52.684Z,92.40
2019-02-07T19:00:22.928Z,92.80
2019-02-07T19:02:49.039Z,92.50
2019-02-07T19:05:17.429Z,93.00
2019-02-07T19:07:43.550Z,93.00
2019-02-07T19:10:12.609Z,93.00
2019-02-07T19:12:38.637Z,93.10
2019-02-07T19:15:14.062Z,93.10
2019-02-07T19:17:40.086Z,93.00
2019-02-07T19:20:28.766Z,93.10
2019-02-07T19:22:54.784Z,93.40
2019-02-07T19:25:20.821Z,93.40
2019-02-07T19:27:46.836Z,93.30
2019-02-07T19:30:25.691Z,92.90
2019-02-07T19:32:51.809Z,93.20
2019-02-07T19:35:17.851Z,93.20
2019-02-07T19:37:43.893Z,92.90
2019-02-07T19:40:12.812Z,92.90
2019-02-07T19:42:38.848Z,92.60
2019-02-07T19:45:08.280Z,92.60
2019-02-07T19:47:34.603Z,92.80
2019-02-07T19:50:00.639Z,93.30
2019-02-07T19:52:26.722Z,92.80
2019-02-07T19:54:52.896Z,92.80
2019-02-07T19:57:18.948Z,93.40
2019-02-07T19:59:44.959Z,92.70
2019-02-07T20:02:10.975Z,92.50
2019-02-07T20:04:37.089Z,92.70
2019-02-07T20:07:03.697Z,92.70
2019-02-07T20:09:29.740Z,92.80
2019-02-07T20:11:55.780Z,93.00
2019-02-07T20:14:21.880Z,93.10
2019-02-07T20:16:47.923Z,93.30
2019-02-07T20:19:13.940Z,93.50
2019-02-07T20:21:39.975Z,93.70
2019-02-07T20:24:06.011Z,93.80
2019-02-07T20:26:32.047Z,94.10
2019-02-07T20:28:58.067Z,93.90
2019-02-07T20:31:24.614Z,93.80
2019-02-07T20:33:50.627Z,93.90
2019-02-07T20:36:16.646Z,93.80
2019-02-07T20:38:42.691Z,93.80
2019-02-07T20:41:08.707Z,93.40
2019-02-07T20:43:34.748Z,93.30
2019-02-07T20:46:00.805Z,93.20
2019-02-07T20:48:26.954Z,93.00
2019-02-07T20:50:52.981Z,93.00
2019-02-07T20:53:19.060Z,93.00
2019-02-07T20:55:45.492Z,93.10
2019-02-07T20:58:11.574Z,92.80
2019-02-07T21:00:38.119Z,92.90
2019-02-07T21:03:04.428Z,92.50
2019-02-07T21:05:31.487Z,92.60
2019-02-07T21:07:57.516Z,92.50
2019-02-07T21:10:25.843Z,92.40
2019-02-07T21:12:51.976Z,92.50
2019-02-07T21:15:18.969Z,92.30
2019-02-07T21:17:46.313Z,92.20
2019-02-07T21:20:20.824Z,92.30
2019-02-07T21:22:46.872Z,92.10
2019-02-07T21:25:18.053Z,92.20
2019-02-07T21:27:44.103Z,92.50
2019-02-07T21:30:27.504Z,92.30
2019-02-07T21:32:53.664Z,92.30
2019-02-07T21:35:20.283Z,92.20
2019-02-07T21:37:46.320Z,92.20
2019-02-07T21:40:15.056Z,92.20
2019-02-07T21:42:41.067Z,92.40
2019-02-07T21:45:09.852Z,92.20
2019-02-07T21:47:35.915Z,92.30
2019-02-07T21:50:02.327Z,92.30
2019-02-07T21:52:28.680Z,92.20
2019-02-07T21:54:54.715Z,92.40
2019-02-07T21:57:20.740Z,92.30
2019-02-07T21:59:46.777Z,92.00
2019-02-07T22:02:12.815Z,92.00
2019-02-07T22:04:38.830Z,92.10
2019-02-07T22:07:04.948Z,91.90
2019-02-07T22:09:30.983Z,92.50
2019-02-07T22:11:57.411Z,92.20
2019-02-07T22:14:23.451Z,92.30
2019-02-07T22:16:49.479Z,92.10
2019-02-07T22:19:15.508Z,91.90
2019-02-07T22:21:41.545Z,91.80
2019-02-07T22:24:07.581Z,91.60
2019-02-07T22:26:33.603Z,91.80
2019-02-07T22:28:59.656Z,91.60
2019-02-07T22:31:25.695Z,91.80
2019-02-07T22:33:52.083Z,91.60
2019-02-07T22:36:18.135Z,91.80
2019-02-07T22:38:44.150Z,91.30
2019-02-07T22:41:10.167Z,91.00
2019-02-07T22:43:36.207Z,91.00
2019-02-07T22:46:02.219Z,91.00
2019-02-07T22:48:28.255Z,91.00
2019-02-07T22:50:55.611Z,90.90
2019-02-07T22:53:21.804Z,91.00
2019-02-07T22:55:48.143Z,91.00
2019-02-07T22:58:14.253Z,91.30
2019-02-07T23:01:02.220Z,91.40
2019-02-07T23:03:28.239Z,91.60
2019-02-07T23:05:54.264Z,92.10
2019-02-07T23:08:20.596Z,92.70
2019-02-07T23:10:46.614Z,92.50
2019-02-07T23:13:12.724Z,92.60
2019-02-07T23:15:38.890Z,92.30
2019-02-07T23:18:06.534Z,92.30
2019-02-07T23:20:32.580Z,92.40
2019-02-07T23:23:05.061Z,92.40
2019-02-07T23:25:26.628Z,92.40
2019-02-07T23:27:53.137Z,92.40
2019-02-07T23:30:19.207Z,92.50
2019-02-07T23:32:45.295Z,92.40
2019-02-07T23:35:11.327Z,92.20
2019-02-07T23:37:37.375Z,92.20
2019-02-07T23:40:07.211Z,92.50
2019-02-07T23:42:33.248Z,91.90
2019-02-07T23:44:59.269Z,91.80
2019-02-07T23:47:25.310Z,92.20
2019-02-07T23:49:51.747Z,91.90
2019-02-07T23:52:17.795Z,92.40
2019-02-07T23:54:43.829Z,92.70
2019-02-07T23:57:11.777Z,92.50
2019-02-07T23:59:37.803Z,92.50
